Time;durP1;ratioP1;P1;durP2;ratioP2;P2;SDS_P1;SDS_P2;PMS_P1;PMS_P2;Temp;Humidity;BMP_temperature;BMP_pressure;BME280_temperature;BME280_humidity;BME280_pressure;Samples;Min_cycle;Max_cycle;Signal;HPM_P1;HPM_P2
2021/10/13 00:00:27;;;;;;;7.65;1.30;;;13.80;97.20;;;;;;5063161;28;20422;-76
2021/10/13 00:02:53;;;;;;;10.45;1.30;;;13.70;97.10;;;;;;5061392;28;20438;-76
2021/10/13 00:05:19;;;;;;;9.68;1.40;;;13.70;97.40;;;;;;5068078;28;20403;-77
2021/10/13 00:07:44;;;;;;;7.83;1.30;;;13.70;97.40;;;;;;5060841;28;20423;-78
2021/10/13 00:10:10;;;;;;;8.70;1.40;;;13.70;97.70;;;;;;5063402;28;20827;-76
2021/10/13 00:12:36;;;;;;;8.43;1.58;;;13.70;97.40;;;;;;5062595;28;20900;-76
2021/10/13 00:15:07;;;;;;;10.07;1.40;;;13.70;98.00;;;;;;5060336;28;20389;-78
2021/10/13 00:17:33;;;;;;;8.40;1.50;;;13.70;98.30;;;;;;5042727;28;20411;-78
2021/10/13 00:20:02;;;;;;;8.40;1.30;;;13.70;98.30;;;;;;5062784;28;20418;-75
2021/10/13 00:22:28;;;;;;;8.77;1.33;;;13.70;97.90;;;;;;5060434;28;20404;-74
2021/10/13 00:24:53;;;;;;;8.23;1.20;;;13.70;98.10;;;;;;5043183;28;20415;-74
2021/10/13 00:27:19;;;;;;;7.37;1.30;;;13.60;97.90;;;;;;5065049;28;20404;-75
2021/10/13 00:29:45;;;;;;;8.27;1.40;;;13.60;98.20;;;;;;5065224;28;20407;-75
2021/10/13 00:32:10;;;;;;;8.32;1.30;;;13.60;98.00;;;;;;5064151;28;20892;-76
2021/10/13 00:34:36;;;;;;;5.40;1.10;;;13.60;98.00;;;;;;5061854;28;20411;-74
2021/10/13 00:37:02;;;;;;;7.40;1.53;;;13.60;98.90;;;;;;5046672;28;20404;-75
2021/10/13 00:39:28;;;;;;;8.63;1.60;;;13.70;98.50;;;;;;5044712;28;20403;-74
2021/10/13 00:41:54;;;;;;;9.38;1.55;;;13.70;98.40;;;;;;5055990;28;20451;-74
2021/10/13 00:44:20;;;;;;;9.00;1.40;;;13.70;97.80;;;;;;5063751;28;20442;-75
2021/10/13 00:46:45;;;;;;;7.60;1.57;;;13.70;97.90;;;;;;5058891;28;20439;-75
2021/10/13 00:49:11;;;;;;;7.57;1.30;;;13.70;98.00;;;;;;5064210;28;20494;-77
2021/10/13 00:51:37;;;;;;;6.45;1.50;;;13.70;98.20;;;;;;5066111;28;20419;-76
2021/10/13 00:54:02;;;;;;;5.33;1.20;;;13.60;98.40;;;;;;5056469;28;20778;-76
2021/10/13 00:56:28;;;;;;;8.80;1.52;;;13.60;97.80;;;;;;5046301;28;20530;-75
2021/10/13 00:58:53;;;;;;;4.63;1.20;;;13.60;97.80;;;;;;5059641;28;20422;-75
2021/10/13 01:01:27;;;;;;;7.03;1.53;;;13.60;97.50;;;;;;5064616;28;20431;-75
2021/10/13 01:03:59;;;;;;;7.47;1.58;;;13.60;97.20;;;;;;5078532;28;20423;-75
2021/10/13 01:06:33;;;;;;;6.82;1.45;;;13.60;97.20;;;;;;5063982;28;20856;-75
2021/10/13 01:09:20;;;;;;;9.40;1.50;;;13.50;97.20;;;;;;5062577;28;20426;-75
2021/10/13 01:12:09;;;;;;;9.70;1.75;;;13.60;97.00;;;;;;5063072;28;20431;-73
2021/10/13 01:14:46;;;;;;;6.72;1.30;;;13.50;97.00;;;;;;5061335;28;20437;-76
2021/10/13 01:17:25;;;;;;;9.52;1.83;;;13.50;97.00;;;;;;5062383;28;20461;-74
2021/10/13 01:20:02;;;;;;;8.95;1.55;;;13.50;97.20;;;;;;5058566;28;20413;-74
2021/10/13 01:23:05;;;;;;;8.38;1.52;;;13.50;97.50;;;;;;5052560;28;20410;-75
2021/10/13 01:25:49;;;;;;;9.50;1.50;;;13.50;97.60;;;;;;5055910;28;20469;-76
2021/10/13 01:28:20;;;;;;;8.70;1.53;;;13.50;98.00;;;;;;5058118;28;20415;-75
2021/10/13 01:31:05;;;;;;;10.70;1.70;;;13.60;98.60;;;;;;5064732;28;20425;-74
2021/10/13 01:33:43;;;;;;;12.35;1.75;;;13.60;98.30;;;;;;5058817;28;20467;-75
2021/10/13 01:36:13;;;;;;;11.60;2.00;;;13.50;98.20;;;;;;5047547;28;20407;-75
2021/10/13 01:38:44;;;;;;;9.90;1.80;;;13.50;98.50;;;;;;5059290;28;20423;-74
2021/10/13 01:41:13;;;;;;;6.80;1.67;;;13.50;98.80;;;;;;5063400;28;20407;-74
2021/10/13 01:43:42;;;;;;;7.55;1.90;;;13.40;98.90;;;;;;5078120;28;20451;-74
2021/10/13 01:46:09;;;;;;;10.55;2.38;;;13.40;98.90;;;;;;5062397;28;20415;-74
2021/10/13 01:48:36;;;;;;;12.48;2.42;;;13.30;99.10;;;;;;5044162;28;20411;-75
2021/10/13 01:51:02;;;;;;;9.82;2.20;;;13.30;99.20;;;;;;5046855;28;20431;-75
2021/10/13 01:53:30;;;;;;;9.13;2.40;;;13.30;99.20;;;;;;5059275;28;20421;-75
2021/10/13 01:55:58;;;;;;;9.27;2.10;;;13.30;99.40;;;;;;5062584;28;20423;-75
2021/10/13 01:58:25;;;;;;;10.40;1.73;;;13.30;99.20;;;;;;5077139;28;20411;-75
2021/10/13 02:00:52;;;;;;;10.32;1.70;;;13.30;99.10;;;;;;5047962;28;20436;-75
2021/10/13 02:03:25;;;;;;;7.85;1.60;;;13.30;98.60;;;;;;5047877;28;20423;-75
2021/10/13 02:05:55;;;;;;;8.48;1.70;;;13.30;98.90;;;;;;5069534;28;20416;-76
2021/10/13 02:08:22;;;;;;;9.63;1.63;;;13.30;99.00;;;;;;5063747;28;20419;-74
2021/10/13 02:10:49;;;;;;;7.97;1.57;;;13.20;99.30;;;;;;5067170;28;20472;-75
2021/10/13 02:13:17;;;;;;;6.53;1.30;;;13.30;99.80;;;;;;5061757;28;20805;-75
2021/10/13 02:15:45;;;;;;;7.68;1.27;;;13.30;99.70;;;;;;5069193;28;20470;-76
2021/10/13 02:18:14;;;;;;;6.03;1.42;;;13.30;99.60;;;;;;5061201;28;20443;-74
2021/10/13 02:20:41;;;;;;;9.25;1.63;;;13.30;99.70;;;;;;5050411;28;20503;-75
2021/10/13 02:23:08;;;;;;;10.55;1.40;;;13.30;99.90;;;;;;5059796;28;20503;-75
2021/10/13 02:25:37;;;;;;;11.90;1.85;;;13.30;99.90;;;;;;5047521;28;20907;-74
2021/10/13 02:28:11;;;;;;;10.95;1.90;;;13.30;99.90;;;;;;5064577;28;21198;-75
2021/10/13 02:30:38;;;;;;;15.03;2.37;;;13.30;99.90;;;;;;5065853;28;20455;-75
2021/10/13 02:33:04;;;;;;;9.40;2.00;;;13.30;99.90;;;;;;5061374;28;20422;-74
2021/10/13 02:35:31;;;;;;;11.57;1.80;;;13.20;99.90;;;;;;5064800;28;20409;-76
2021/10/13 02:37:56;;;;;;;9.80;1.60;;;13.20;99.90;;;;;;5079001;28;20415;-77
2021/10/13 02:40:22;;;;;;;10.17;2.10;;;13.20;99.90;;;;;;5063898;28;20418;-77
2021/10/13 02:42:48;;;;;;;11.45;1.77;;;13.20;99.90;;;;;;5079019;28;20416;-79
2021/10/13 02:45:15;;;;;;;11.00;2.20;;;13.20;99.90;;;;;;5061783;28;20438;-77
2021/10/13 02:48:01;;;;;;;13.13;1.80;;;13.20;99.90;;;;;;5061504;28;20411;-77
2021/10/13 02:50:35;;;;;;;8.68;2.03;;;13.20;99.90;;;;;;5045255;28;20449;-77
2021/10/13 02:53:31;;;;;;;10.50;1.70;;;13.20;99.90;;;;;;5064155;28;20419;-77
2021/10/13 02:56:05;;;;;;;9.98;2.00;;;13.30;99.90;;;;;;5068626;28;20425;-77
2021/10/13 02:58:41;;;;;;;9.57;1.92;;;13.30;99.90;;;;;;5065383;28;20434;-77
2021/10/13 03:01:12;;;;;;;7.93;1.77;;;13.30;99.90;;;;;;5048272;28;20417;-76
2021/10/13 03:03:53;;;;;;;11.90;2.20;;;13.30;99.90;;;;;;5046761;28;20423;-76
2021/10/13 03:06:20;;;;;;;9.98;1.40;;;13.30;99.90;;;;;;5066524;28;21256;-76
2021/10/13 03:08:48;;;;;;;10.93;1.70;;;13.30;99.90;;;;;;5060564;28;20438;-76
2021/10/13 03:11:16;;;;;;;10.30;1.33;;;13.30;99.90;;;;;;5066920;28;20482;-76
2021/10/13 03:13:44;;;;;;;12.55;1.60;;;13.30;99.90;;;;;;5064326;28;20410;-76
2021/10/13 03:16:12;;;;;;;10.90;1.40;;;13.30;99.90;;;;;;5066967;28;20453;-75
2021/10/13 03:18:39;;;;;;;11.33;1.40;;;13.30;99.90;;;;;;5080831;28;20422;-77
2021/10/13 03:21:06;;;;;;;7.65;1.65;;;13.30;99.90;;;;;;5066106;28;20415;-76
2021/10/13 03:23:32;;;;;;;8.30;1.40;;;13.30;99.90;;;;;;5061714;28;20415;-76
2021/10/13 03:26:09;;;;;;;12.43;1.50;;;13.30;99.90;;;;;;5078058;28;20489;-76
2021/10/13 03:28:37;;;;;;;9.88;1.40;;;13.30;99.90;;;;;;5060676;28;20453;-77
2021/10/13 03:31:03;;;;;;;11.30;1.47;;;13.40;99.90;;;;;;5064910;28;20419;-77
2021/10/13 03:33:29;;;;;;;10.10;1.70;;;13.40;99.90;;;;;;5062375;28;20927;-75
2021/10/13 03:35:55;;;;;;;9.07;1.50;;;13.40;99.90;;;;;;5065618;28;20443;-75
2021/10/13 03:38:21;;;;;;;10.20;1.38;;;13.40;99.90;;;;;;5064653;28;20415;-75
2021/10/13 03:40:47;;;;;;;11.15;1.60;;;13.50;99.90;;;;;;5047611;28;20814;-75
2021/10/13 03:43:12;;;;;;;8.80;1.50;;;13.50;99.90;;;;;;5064737;28;20411;-75
2021/10/13 03:45:38;;;;;;;10.65;1.70;;;13.50;99.90;;;;;;5047031;28;20470;-76
2021/10/13 03:48:04;;;;;;;12.10;1.80;;;13.60;99.90;;;;;;5045228;28;20503;-75
2021/10/13 03:50:30;;;;;;;10.30;1.45;;;13.50;99.90;;;;;;5066790;28;20896;-75
2021/10/13 03:52:56;;;;;;;13.13;1.60;;;13.60;99.90;;;;;;5063536;28;20422;-75
2021/10/13 03:55:22;;;;;;;11.30;1.55;;;13.60;99.90;;;;;;5049404;28;20408;-75
2021/10/13 03:57:49;;;;;;;12.77;2.00;;;13.60;99.90;;;;;;5059167;28;20421;-75
2021/10/13 04:00:18;;;;;;;14.48;1.75;;;13.60;99.90;;;;;;5048582;28;20391;-76
2021/10/13 04:02:43;;;;;;;10.60;1.40;;;13.60;99.90;;;;;;5061058;28;20432;-75
2021/10/13 04:05:09;;;;;;;11.15;1.80;;;13.50;99.90;;;;;;5063883;28;20416;-76
2021/10/13 04:07:36;;;;;;;10.45;1.70;;;13.50;99.90;;;;;;5054980;28;20416;-74
2021/10/13 04:10:03;;;;;;;9.18;1.50;;;13.50;99.90;;;;;;5047615;28;20423;-74
2021/10/13 04:12:29;;;;;;;12.40;1.83;;;13.50;99.90;;;;;;5060669;28;20463;-75
2021/10/13 04:14:55;;;;;;;7.90;1.63;;;13.50;99.90;;;;;;5066897;28;20438;-74
2021/10/13 04:17:21;;;;;;;8.87;1.40;;;13.50;99.90;;;;;;5046502;28;20439;-75
2021/10/13 04:19:47;;;;;;;9.07;1.75;;;13.50;99.90;;;;;;5064290;28;20433;-75
2021/10/13 04:22:12;;;;;;;9.90;1.75;;;13.60;99.90;;;;;;5059876;28;20434;-75
2021/10/13 04:24:38;;;;;;;7.67;1.40;;;13.60;99.90;;;;;;5059605;28;20776;-75
2021/10/13 04:27:04;;;;;;;13.52;1.70;;;13.60;99.90;;;;;;5060425;28;20496;-74
2021/10/13 04:29:29;;;;;;;9.43;1.73;;;13.60;99.90;;;;;;5065531;28;20445;-75
2021/10/13 04:31:55;;;;;;;8.93;1.70;;;13.50;99.90;;;;;;5044731;28;20419;-75
2021/10/13 04:34:21;;;;;;;11.20;2.33;;;13.50;99.90;;;;;;5078946;28;20411;-75
2021/10/13 04:36:46;;;;;;;9.80;1.90;;;13.50;99.90;;;;;;5062786;28;20423;-75
2021/10/13 04:39:12;;;;;;;13.38;2.40;;;13.40;99.90;;;;;;5062390;28;20454;-76
2021/10/13 04:41:38;;;;;;;11.43;2.00;;;13.40;99.90;;;;;;5046160;28;20498;-75
2021/10/13 04:44:04;;;;;;;7.40;1.90;;;13.30;99.90;;;;;;5045882;28;20463;-75
2021/10/13 04:46:29;;;;;;;10.15;1.88;;;13.30;99.90;;;;;;5065141;28;20411;-76
2021/10/13 04:48:55;;;;;;;10.20;2.07;;;13.30;99.90;;;;;;5060954;28;20423;-75
2021/10/13 04:51:21;;;;;;;9.98;1.90;;;13.20;99.90;;;;;;5042973;28;20451;-76
2021/10/13 04:53:46;;;;;;;12.77;2.10;;;13.20;99.90;;;;;;5038705;28;20435;-75
2021/10/13 04:56:12;;;;;;;6.88;1.88;;;13.20;99.90;;;;;;5041441;28;20403;-74
2021/10/13 04:58:38;;;;;;;10.60;2.20;;;13.20;99.90;;;;;;5054450;28;20930;-74
2021/10/13 05:01:03;;;;;;;10.83;2.87;;;13.20;99.90;;;;;;5044450;28;21669;-74
2021/10/13 05:03:29;;;;;;;11.13;3.42;;;13.20;99.90;;;;;;5057246;28;20411;-74
2021/10/13 05:05:55;;;;;;;8.93;2.90;;;13.20;99.90;;;;;;5040248;28;20419;-75
2021/10/13 05:08:21;;;;;;;10.45;2.67;;;13.20;99.90;;;;;;5056523;28;20419;-75
2021/10/13 05:10:46;;;;;;;9.43;2.40;;;13.20;99.90;;;;;;5038929;28;20956;-75
2021/10/13 05:13:12;;;;;;;9.13;2.50;;;13.20;99.90;;;;;;5058050;28;20415;-73
2021/10/13 05:15:38;;;;;;;11.25;3.33;;;13.20;99.90;;;;;;5047830;28;20452;-73
2021/10/13 05:18:03;;;;;;;11.30;3.17;;;13.20;99.90;;;;;;5061988;28;20499;-74
2021/10/13 05:20:29;;;;;;;13.37;3.90;;;13.20;99.90;;;;;;5041079;28;20520;-75
2021/10/13 05:22:54;;;;;;;12.40;3.33;;;13.10;99.90;;;;;;5062344;28;20415;-72
2021/10/13 05:25:20;;;;;;;14.10;3.30;;;13.10;99.90;;;;;;5042328;28;20983;-73
2021/10/13 05:27:46;;;;;;;11.13;2.90;;;13.10;99.90;;;;;;5058659;28;21104;-74
2021/10/13 05:30:12;;;;;;;12.50;3.00;;;13.00;99.90;;;;;;5043370;28;20825;-74
2021/10/13 05:32:37;;;;;;;10.35;3.10;;;13.00;99.90;;;;;;5039413;28;20415;-74
2021/10/13 05:35:03;;;;;;;12.20;3.50;;;12.90;99.90;;;;;;5065063;28;20476;-75
2021/10/13 05:37:29;;;;;;;17.13;3.70;;;12.90;99.90;;;;;;5072327;28;20822;-74
2021/10/13 05:39:55;;;;;;;15.32;3.50;;;12.90;99.90;;;;;;5064257;28;20383;-74
2021/10/13 05:42:20;;;;;;;12.30;3.30;;;12.90;99.90;;;;;;5061868;28;20415;-74
2021/10/13 05:44:46;;;;;;;16.98;3.20;;;12.90;99.90;;;;;;5062824;28;20467;-73
2021/10/13 05:47:12;;;;;;;11.93;3.17;;;12.90;99.90;;;;;;5042750;28;20418;-73
2021/10/13 05:49:38;;;;;;;13.68;3.10;;;12.90;99.90;;;;;;5061550;28;20414;-74
2021/10/13 05:52:05;;;;;;;13.50;3.22;;;12.90;99.90;;;;;;5059398;28;20645;-74
2021/10/13 05:54:30;;;;;;;13.80;3.70;;;13.00;99.90;;;;;;5061797;28;21221;-74
2021/10/13 05:56:56;;;;;;;16.43;5.23;;;13.00;99.90;;;;;;5057868;28;20421;-74
2021/10/13 05:59:22;;;;;;;11.93;3.50;;;13.00;99.90;;;;;;5064197;28;20395;-74
2021/10/13 06:01:47;;;;;;;10.40;3.10;;;13.10;99.90;;;;;;5058725;28;20417;-74
2021/10/13 06:04:13;;;;;;;12.10;3.50;;;13.10;99.90;;;;;;5076837;28;20428;-74
2021/10/13 06:06:39;;;;;;;10.73;2.83;;;13.10;99.90;;;;;;5061507;28;20957;-74
2021/10/13 06:09:04;;;;;;;9.67;2.37;;;13.20;99.90;;;;;;5074462;28;20403;-75
2021/10/13 06:11:30;;;;;;;11.05;2.60;;;13.20;99.90;;;;;;5043866;28;20415;-74
2021/10/13 06:13:56;;;;;;;8.32;2.15;;;13.10;99.90;;;;;;5059059;28;20976;-71
2021/10/13 06:16:22;;;;;;;11.57;1.83;;;13.20;99.90;;;;;;5056232;28;21905;-74
2021/10/13 06:18:50;;;;;;;10.32;1.70;;;13.20;99.90;;;;;;5053998;28;20503;-72
2021/10/13 06:21:17;;;;;;;9.88;1.60;;;13.20;99.90;;;;;;5040933;28;20919;-73
2021/10/13 06:23:42;;;;;;;11.90;2.07;;;13.20;99.90;;;;;;5051867;28;20497;-73
2021/10/13 06:26:08;;;;;;;10.00;1.80;;;13.30;99.90;;;;;;5042773;28;20440;-73
2021/10/13 06:28:34;;;;;;;9.57;1.70;;;13.30;99.90;;;;;;5061408;28;20912;-74
2021/10/13 06:30:59;;;;;;;14.80;2.23;;;13.30;99.60;;;;;;5064815;28;20888;-74
2021/10/13 06:33:26;;;;;;;9.50;2.40;;;13.40;99.80;;;;;;5057019;28;20424;-70
2021/10/13 06:35:52;;;;;;;10.18;1.90;;;13.40;99.90;;;;;;5044689;28;20549;-73
2021/10/13 06:38:18;;;;;;;7.88;1.45;;;13.40;99.90;;;;;;5042136;28;20486;-72
2021/10/13 06:40:44;;;;;;;10.13;1.87;;;13.50;99.80;;;;;;5059681;28;20799;-73
2021/10/13 06:43:11;;;;;;;8.15;1.70;;;13.50;99.70;;;;;;5053949;28;20422;-74
2021/10/13 06:45:38;;;;;;;14.35;2.30;;;13.50;99.50;;;;;;5061071;28;20419;-71
2021/10/13 06:48:04;;;;;;;8.25;1.80;;;13.50;99.80;;;;;;5063594;28;20515;-75
2021/10/13 06:50:31;;;;;;;9.53;1.87;;;13.60;99.60;;;;;;5067160;28;20904;-75
2021/10/13 06:52:56;;;;;;;10.17;1.80;;;13.70;99.80;;;;;;5061528;28;21084;-73
2021/10/13 06:55:22;;;;;;;10.57;2.00;;;13.70;99.90;;;;;;5066939;28;20517;-74
2021/10/13 06:57:47;;;;;;;10.40;1.70;;;13.80;99.50;;;;;;5061232;28;20412;-74
2021/10/13 07:00:14;;;;;;;14.90;1.93;;;13.80;99.20;;;;;;5058086;28;20411;-74
2021/10/13 07:02:39;;;;;;;10.25;1.70;;;13.80;99.10;;;;;;5056782;28;20426;-74
2021/10/13 07:05:05;;;;;;;9.27;1.60;;;13.90;99.20;;;;;;5065990;28;20486;-71
2021/10/13 07:07:31;;;;;;;11.52;1.95;;;13.90;99.20;;;;;;5064232;28;20403;-74
2021/10/13 07:09:56;;;;;;;10.40;1.60;;;14.00;99.40;;;;;;5047360;28;20812;-74
2021/10/13 07:12:22;;;;;;;6.90;1.52;;;14.00;99.30;;;;;;5065480;28;20206;-74
2021/10/13 07:14:47;;;;;;;8.60;1.33;;;13.60;99.80;;;;;;5049563;28;20194;-74
2021/10/13 07:17:13;;;;;;;7.40;1.60;;;13.30;99.90;;;;;;5061596;28;20198;-74
2021/10/13 07:19:38;;;;;;;11.75;1.63;;;13.10;99.90;;;;;;5061007;28;20208;-75
2021/10/13 07:22:04;;;;;;;9.23;1.30;;;12.90;99.90;;;;;;5045345;28;20191;-75
2021/10/13 07:24:30;;;;;;;9.75;1.45;;;12.80;99.90;;;;;;5060077;28;20227;-73
2021/10/13 07:26:55;;;;;;;10.90;1.27;;;12.60;99.90;;;;;;5064501;28;20182;-74
2021/10/13 07:29:21;;;;;;;8.73;1.50;;;12.60;99.90;;;;;;5068054;28;20249;-74
2021/10/13 07:31:47;;;;;;;10.57;2.00;;;12.40;99.90;;;;;;5065984;28;20216;-75
2021/10/13 07:34:12;;;;;;;7.20;1.17;;;12.40;99.90;;;;;;5064352;28;20186;-75
2021/10/13 07:36:38;;;;;;;7.70;1.70;;;12.40;99.90;;;;;;5068179;28;20189;-74
2021/10/13 07:39:05;;;;;;;7.68;1.50;;;12.30;99.90;;;;;;5060386;28;20660;-74
2021/10/13 07:41:31;;;;;;;9.70;1.65;;;12.30;99.90;;;;;;5068819;28;20182;-73
2021/10/13 07:43:57;;;;;;;9.10;1.40;;;12.30;99.90;;;;;;5064511;28;20582;-74
2021/10/13 07:46:25;;;;;;;8.23;1.58;;;12.40;99.90;;;;;;5067795;28;20213;-75
2021/10/13 07:48:52;;;;;;;4.68;1.80;;;12.30;99.90;;;;;;5044731;28;20185;-73
2021/10/13 07:51:18;;;;;;;8.25;1.85;;;12.40;99.90;;;;;;5065929;28;20206;-74
2021/10/13 07:53:43;;;;;;;10.27;1.50;;;12.40;99.90;;;;;;5060233;28;20182;-75
2021/10/13 07:56:09;;;;;;;8.18;1.75;;;12.50;99.90;;;;;;5043078;28;20202;-75
2021/10/13 07:58:34;;;;;;;6.43;1.63;;;12.50;99.90;;;;;;5063741;28;20182;-75
2021/10/13 08:01:00;;;;;;;9.50;2.25;;;12.50;99.90;;;;;;5049417;28;20196;-74
2021/10/13 08:03:26;;;;;;;7.68;1.50;;;12.70;99.90;;;;;;5063527;28;20226;-75
2021/10/13 08:05:51;;;;;;;5.13;1.30;;;13.00;99.90;;;;;;5064734;28;20178;-75
2021/10/13 08:08:17;;;;;;;5.28;1.10;;;13.20;99.90;;;;;;5046291;28;20189;-74
2021/10/13 08:10:43;;;;;;;8.60;1.50;;;13.30;99.90;;;;;;5048780;28;20198;-72
2021/10/13 08:13:08;;;;;;;4.40;0.88;;;13.40;99.90;;;;;;5059766;28;20195;-74
2021/10/13 08:15:34;;;;;;;30.35;2.70;;;13.50;99.90;;;;;;5045756;28;20214;-74
2021/10/13 08:18:00;;;;;;;21.50;2.85;;;13.40;99.90;;;;;;5043411;28;20188;-73
2021/10/13 08:20:25;;;;;;;7.20;1.15;;;13.40;99.90;;;;;;5066422;28;20207;-74
2021/10/13 08:22:51;;;;;;;6.07;1.33;;;13.30;99.90;;;;;;5057063;28;20651;-75
2021/10/13 08:25:17;;;;;;;4.32;1.13;;;13.20;99.90;;;;;;5063596;28;20213;-74
2021/10/13 08:27:43;;;;;;;5.85;1.02;;;13.20;99.90;;;;;;5061439;28;20201;-74
2021/10/13 08:30:09;;;;;;;4.10;1.00;;;13.20;99.90;;;;;;5064296;28;20270;-75
2021/10/13 08:32:35;;;;;;;2.15;0.73;;;13.20;99.90;;;;;;5045844;28;20187;-75
2021/10/13 08:35:01;;;;;;;6.18;1.00;;;13.20;99.90;;;;;;5060644;28;20251;-75
2021/10/13 08:37:27;;;;;;;4.35;1.13;;;13.30;99.90;;;;;;5060591;28;20200;-74
2021/10/13 08:39:52;;;;;;;2.53;1.27;;;13.30;99.90;;;;;;5061349;28;20266;-74
2021/10/13 08:42:22;;;;;;;;;;;13.40;99.90;;;;;;5044525;28;20131;-73
2021/10/13 08:44:48;;;;;;;;;;;13.40;99.90;;;;;;5062577;28;20003;-73
2021/10/13 08:47:13;;;;;;;;;;;13.50;99.90;;;;;;5058491;28;20051;-74
2021/10/13 08:49:40;;;;;;;8.90;1.60;;;13.70;99.90;;;;;;5062730;28;20416;-74
2021/10/13 08:52:09;;;;;;;;;;;14.70;99.90;;;;;;5059301;28;20059;-74
2021/10/13 08:54:35;;;;;;;;;;;14.70;99.90;;;;;;5066983;28;19912;-74
2021/10/13 08:57:01;;;;;;;12.73;2.60;;;14.50;99.90;;;;;;5043963;28;21010;-74
2021/10/13 08:59:44;;;;;;;6.95;1.35;;;15.20;98.90;;;;;;5047599;28;20182;-75
2021/10/13 09:02:10;;;;;;;6.80;1.20;;;15.00;99.30;;;;;;5044250;28;20182;-74
2021/10/13 09:04:36;;;;;;;13.75;2.45;;;14.90;99.90;;;;;;5078901;28;20419;-74
2021/10/13 09:07:05;;;;;;;22.83;4.27;;;15.80;97.40;;;;;;5059677;28;20412;-74
2021/10/13 09:09:32;;;;;;;8.35;2.03;;;16.40;96.00;;;;;;5064521;28;20425;-74
2021/10/13 09:11:58;;;;;;;16.55;3.22;;;16.90;95.20;;;;;;5075295;28;20502;-75
2021/10/13 09:14:29;;;;;;;17.80;3.70;;;17.50;93.90;;;;;;5062114;28;20474;-74
2021/10/13 09:17:05;;;;;;;12.07;2.17;;;18.30;92.20;;;;;;5062595;28;20410;-74
2021/10/13 09:19:37;;;;;;;11.10;1.60;;;19.20;90.20;;;;;;5044718;28;20392;-75
2021/10/13 09:22:04;;;;;;;10.88;1.90;;;20.20;85.10;;;;;;5060694;28;20415;-75
2021/10/13 09:24:32;;;;;;;9.43;1.50;;;20.50;81.20;;;;;;5059000;28;20411;-75
2021/10/13 09:27:18;;;;;;;8.83;1.40;;;20.30;80.60;;;;;;5059910;28;20422;-75
2021/10/13 09:29:45;;;;;;;6.68;1.10;;;19.90;80.10;;;;;;5057834;28;20548;-75
2021/10/13 09:32:10;;;;;;;5.72;1.60;;;19.10;84.80;;;;;;5062177;28;20211;-74
2021/10/13 09:34:47;;;;;;;6.90;1.58;;;18.40;87.80;;;;;;5066296;28;20201;-74
2021/10/13 09:37:13;;;;;;;6.22;1.55;;;17.80;90.20;;;;;;5062014;28;20186;-75
2021/10/13 09:39:39;;;;;;;9.60;1.55;;;17.30;90.70;;;;;;5062243;28;20191;-74
2021/10/13 09:42:11;;;;;;;6.40;1.38;;;16.90;91.40;;;;;;5060764;28;20296;-74
2021/10/13 09:44:41;;;;;;;5.45;1.38;;;16.50;92.10;;;;;;5063670;28;20227;-74
2021/10/13 09:47:10;;;;;;;6.15;1.23;;;16.10;92.80;;;;;;5061013;28;20332;-74
2021/10/13 09:49:43;;;;;;;12.45;2.10;;;15.80;93.20;;;;;;5065252;28;20231;-75
2021/10/13 09:52:15;;;;;;;7.40;1.40;;;15.60;93.80;;;;;;5043863;28;20508;-75
2021/10/13 09:54:43;;;;;;;10.10;1.40;;;16.10;94.30;;;;;;5066023;28;20205;-75
2021/10/13 09:57:30;;;;;;;11.23;1.38;;;15.90;94.70;;;;;;5058584;28;20969;-74
2021/10/13 09:59:58;;;;;;;9.52;1.45;;;15.70;95.10;;;;;;5061844;28;20179;-74
2021/10/13 10:02:31;;;;;;;7.00;1.50;;;15.70;95.40;;;;;;5061110;28;20217;-75
2021/10/13 10:04:59;;;;;;;10.90;2.05;;;15.60;95.70;;;;;;5061954;28;20295;-75
2021/10/13 10:07:25;;;;;;;8.00;1.30;;;15.60;95.70;;;;;;5061591;28;20198;-74
2021/10/13 10:10:16;;;;;;;8.48;1.40;;;15.60;95.70;;;;;;5062322;28;20677;-74
2021/10/13 10:13:01;;;;;;;4.32;1.38;;;15.60;95.50;;;;;;5059458;28;20187;-74
2021/10/13 10:15:31;;;;;;;6.78;1.30;;;15.60;95.30;;;;;;5065590;28;20198;-74
2021/10/13 10:17:57;;;;;;;12.15;1.85;;;15.50;95.20;;;;;;5064901;28;20194;-74
2021/10/13 10:20:36;;;;;;;9.57;2.20;;;15.50;95.20;;;;;;5063138;28;20246;-74
2021/10/13 10:23:25;;;;;;;7.63;1.77;;;15.40;95.10;;;;;;5063105;28;20978;-74
2021/10/13 10:25:50;;;;;;;14.20;1.50;;;15.40;95.10;;;;;;5063540;28;20712;-74
2021/10/13 10:29:04;;;;;;;11.60;1.65;;;15.40;95.20;;;;;;5063239;28;20211;-74
2021/10/13 10:31:35;;;;;;;5.35;1.15;;;15.30;95.30;;;;;;5066853;28;20226;-74
2021/10/13 10:34:11;;;;;;;10.48;1.60;;;15.20;95.40;;;;;;5044678;28;20651;-74
2021/10/13 10:36:37;;;;;;;3.03;1.10;;;15.20;95.50;;;;;;5068824;28;20273;-74
2021/10/13 10:39:08;;;;;;;7.32;1.63;;;15.10;95.60;;;;;;5065908;28;20247;-74
2021/10/13 10:41:47;;;;;;;8.60;1.33;;;15.10;95.70;;;;;;5067558;28;20209;-73
2021/10/13 10:44:39;;;;;;;14.50;1.85;;;15.10;95.80;;;;;;5064095;28;20222;-74
2021/10/13 10:47:17;;;;;;;11.00;1.98;;;15.20;95.70;;;;;;5058559;28;23011;-74
2021/10/13 10:49:46;;;;;;;10.93;1.60;;;15.30;95.60;;;;;;5039500;28;20843;-74
2021/10/13 10:52:32;;;;;;;3.90;1.30;;;15.30;95.40;;;;;;5062157;28;20233;-74
2021/10/13 10:54:58;;;;;;;6.13;1.40;;;15.50;95.20;;;;;;5067807;28;20186;-74
2021/10/13 10:57:32;;;;;;;6.68;1.25;;;15.70;95.10;;;;;;5047151;28;20287;-73
2021/10/13 10:59:58;;;;;;;3.97;0.98;;;15.90;94.70;;;;;;5066873;28;20220;-73
2021/10/13 11:02:25;;;;;;;8.52;1.40;;;16.00;94.50;;;;;;5043865;28;20238;-73
2021/10/13 11:05:10;;;;;;;4.55;1.10;;;16.20;94.20;;;;;;5065045;28;20182;-72
2021/10/13 11:07:37;;;;;;;13.70;1.70;;;16.60;94.10;;;;;;5064999;28;20183;-73
2021/10/13 11:10:06;;;;;;;6.32;1.42;;;17.00;93.70;;;;;;5050323;28;20217;-74
2021/10/13 11:12:52;;;;;;;5.82;1.30;;;17.30;92.80;;;;;;5064641;28;20218;-71
2021/10/13 11:15:21;;;;;;;9.88;2.75;;;17.50;92.20;;;;;;5062917;28;20183;-71
2021/10/13 11:17:47;;;;;;;;;;;17.80;92.20;;;;;;5062841;28;20124;-73
2021/10/13 11:20:14;;;;;;;;;;;18.10;92.30;;;;;;5048754;28;20046;-74
2021/10/13 11:22:40;;;;;;;;;;;18.20;91.90;;;;;;5061884;28;19963;-75
2021/10/13 11:25:15;;;;;;;;;;;18.20;91.80;;;;;;5061117;28;19948;-76
2021/10/13 11:27:41;;;;;;;;;;;18.10;91.70;;;;;;5063856;28;19921;-74
2021/10/13 11:30:16;;;;;;;;;;;18.00;90.70;;;;;;5048512;28;19917;-74
2021/10/13 11:32:42;;;;;;;;;;;17.90;90.80;;;;;;5043501;28;19916;-74
2021/10/13 11:35:08;;;;;;;;;;;17.70;91.60;;;;;;5066658;28;19969;-74
2021/10/13 11:37:35;;;;;;;5.75;1.55;;;17.50;91.70;;;;;;5063626;28;20183;-74
2021/10/13 11:40:01;;;;;;;6.32;1.17;;;17.40;92.10;;;;;;5066211;28;20189;-74
2021/10/13 11:42:28;;;;;;;5.35;1.30;;;17.30;91.30;;;;;;5046206;28;20186;-73
2021/10/13 11:44:56;;;;;;;8.27;1.30;;;17.20;90.70;;;;;;5067711;28;20201;-74
2021/10/13 11:47:47;;;;;;;10.18;1.42;;;17.10;90.20;;;;;;5063831;28;20190;-73
2021/10/13 11:50:17;;;;;;;4.00;0.95;;;17.00;90.10;;;;;;5065661;28;20202;-73
2021/10/13 11:52:49;;;;;;;4.85;1.15;;;17.00;90.20;;;;;;5060790;28;20734;-73
2021/10/13 11:55:17;;;;;;;6.55;1.27;;;17.10;90.00;;;;;;5063709;28;20195;-73
2021/10/13 11:57:51;;;;;;;9.68;1.45;;;17.40;89.30;;;;;;5062455;28;20246;-73
2021/10/13 12:00:18;;;;;;;;;;;17.60;87.60;;;;;;5068029;28;20024;-73
2021/10/13 12:02:56;;;;;;;;;;;17.90;88.60;;;;;;5062737;28;19913;-74
2021/10/13 12:05:27;;;;;;;;;;;18.30;89.10;;;;;;5069050;28;19908;-71
2021/10/13 12:07:59;;;;;;;;;;;18.80;87.70;;;;;;5059634;28;19912;-72
2021/10/13 12:10:32;;;;;;;;;;;19.20;87.90;;;;;;5063711;28;19958;-73
2021/10/13 12:13:00;;;;;;;;;;;19.70;87.60;;;;;;5058854;28;19916;-72
2021/10/13 12:15:27;;;;;;;;;;;20.30;88.00;;;;;;5064293;28;20285;-73
2021/10/13 12:18:06;;;;;;;;;;;20.80;86.90;;;;;;5061542;28;19913;-73
2021/10/13 12:20:32;;;;;;;6.22;1.38;;;21.30;86.80;;;;;;5062967;28;20189;-74
2021/10/13 12:22:58;;;;;;;2.53;0.90;;;21.90;83.20;;;;;;5060449;28;20468;-75
2021/10/13 12:25:31;;;;;;;6.20;1.10;;;23.50;57.50;;;;;;5061505;28;20430;-76
2021/10/13 12:27:59;;;;;;;3.97;1.00;;;24.20;52.00;;;;;;5061062;28;20476;-72
2021/10/13 12:30:33;;;;;;;5.47;1.10;;;24.30;51.60;;;;;;5060611;28;20409;-74
2021/10/13 12:33:09;;;;;;;6.87;1.00;;;24.40;49.50;;;;;;5072888;28;20896;-73
2021/10/13 12:35:35;;;;;;;3.83;1.00;;;24.40;47.70;;;;;;5057830;28;20405;-74
2021/10/13 12:38:08;;;;;;;4.63;0.95;;;24.30;49.00;;;;;;5064674;28;20503;-74
2021/10/13 12:40:33;;;;;;;2.45;0.90;;;24.30;49.10;;;;;;5063863;28;20409;-75
2021/10/13 12:43:17;;;;;;;4.00;0.90;;;24.50;48.90;;;;;;5039717;28;20474;-73
2021/10/13 12:45:42;;;;;;;3.53;0.90;;;24.50;47.70;;;;;;5058657;28;20417;-73
2021/10/13 12:48:13;;;;;;;3.58;1.08;;;24.50;49.00;;;;;;5057131;28;20519;-74
2021/10/13 12:50:39;;;;;;;3.58;1.10;;;24.30;47.90;;;;;;5059318;28;20538;-73
2021/10/13 12:53:05;;;;;;;3.38;1.20;;;23.90;48.30;;;;;;5038667;28;20419;-74
2021/10/13 12:55:30;;;;;;;5.63;1.00;;;23.60;48.60;;;;;;5064859;28;20402;-73